ロンドン/ヒースロー の空港の天気 - METARとTAF

ロンドン・ヒースロー空港 ( EGLL / LHR ) - イギリス ロンドン
飛行場実況気象(Metar)
観測時間05/10 08:50 BST (05/10 07:50 UTC)
風向・風速南南西 6m/s
視程10km以上
天気現象
全天の4割程度の雲 雲底高度 700m
全天の8割程度の雲 雲底高度 850m
全天の8割程度の雲 雲底高度 980m
気温12℃
湿度77%
気圧998hPa
METAREGLL 100750Z AUTO 21011KT 9999 SCT023 BKN028 BKN032 12/08 Q0998 TEMPO SHRA
過去の天気等 Google飛行場航空写真 Wunderground天気予報

過去48時間のMETAR

飛行場予報(TAF)
発表時間: 5/10 06:06 BST (5/10 05:06 UTC)
予報対象時間: 10日7時 BST ~ 11日13時 BST
風向・風速南南西 5m/s
視程10km以上
全天の4割程度の雲 雲底高度 760m
10日7時 BST ~ 10日16時 BST に 確率 30% で一時的に
視程7000m
天気現象しゅう雨
全天の8割程度の雲 雲底高度 370m
10日8時 BST ~ 10日11時 BST に徐々に
風向・風速南南西 9m/s 瞬間風速 15m/s
10日17時 BST ~ 10日20時 BST に徐々に
風向・風速南南西 5m/s
11日1時 BST から 確率 40% で
風向・風速南東 3m/s
11日9時 BST ~ 11日13時 BST に 確率 30% で一時的に
視程7000m
天気現象しゅう雨
11日10時 BST ~ 11日13時 BST に徐々に
風向・風速南 8m/s 瞬間風速 13m/s
TAF EGLL 100506Z 1006/1112 20010KT 9999 SCT025
PROB30 TEMPO 1006/1015 7000 SHRA BKN012
BECMG 1007/1010 21018G30KT
BECMG 1016/1019 20010KT
PROB40 1100/1109 14005KT
PROB30 TEMPO 1108/1112 7000 SHRA
BECMG 1109/1112 19015G25KT